sensor_id;sensor_type;location;lat;lon;timestamp;temperature;humidity
1137;DHT22;557;48.466;7.950;2023-08-12T00:02:07;22.70;1.00
1137;DHT22;557;48.466;7.950;2023-08-12T00:04:54;22.60;58.50
1137;DHT22;557;48.466;7.950;2023-08-12T00:07:41;22.50;99.90
1137;DHT22;557;48.466;7.950;2023-08-12T00:10:29;22.50;1.00
1137;DHT22;557;48.466;7.950;2023-08-12T00:13:16;22.60;99.90
1137;DHT22;557;48.466;7.950;2023-08-12T00:16:04;22.60;1.00
1137;DHT22;557;48.466;7.950;2023-08-12T00:18:52;22.60;1.00
1137;DHT22;557;48.466;7.950;2023-08-12T00:21:39;22.60;99.90
1137;DHT22;557;48.466;7.950;2023-08-12T00:24:27;22.60;99.90
1137;DHT22;557;48.466;7.950;2023-08-12T00:27:14;22.60;99.90
1137;DHT22;557;48.466;7.950;2023-08-12T00:30:01;22.50;99.90
1137;DHT22;557;48.466;7.950;2023-08-12T00:32:48;22.30;1.00
1137;DHT22;557;48.466;7.950;2023-08-12T00:35:37;22.10;99.90
1137;DHT22;557;48.466;7.950;2023-08-12T00:38:24;21.90;99.90
1137;DHT22;557;48.466;7.950;2023-08-12T00:41:11;21.80;99.90
1137;DHT22;557;48.466;7.950;2023-08-12T00:43:59;21.70;1.00
1137;DHT22;557;48.466;7.950;2023-08-12T00:46:46;21.60;1.00
1137;DHT22;557;48.466;7.950;2023-08-12T00:49:33;21.60;1.00
1137;DHT22;557;48.466;7.950;2023-08-12T00:52:24;21.60;1.00
1137;DHT22;557;48.466;7.950;2023-08-12T00:55:12;21.50;1.00
1137;DHT22;557;48.466;7.950;2023-08-12T00:57:59;21.50;1.00
1137;DHT22;557;48.466;7.950;2023-08-12T01:00:46;21.50;1.00
1137;DHT22;557;48.466;7.950;2023-08-12T01:03:34;21.50;1.00
1137;DHT22;557;48.466;7.950;2023-08-12T01:06:21;21.50;1.00
1137;DHT22;557;48.466;7.950;2023-08-12T01:09:10;21.50;1.00
1137;DHT22;557;48.466;7.950;2023-08-12T01:12:03;21.40;1.00
1137;DHT22;557;48.466;7.950;2023-08-12T01:14:58;21.40;1.00
1137;DHT22;557;48.466;7.950;2023-08-12T01:17:46;21.40;1.00
1137;DHT22;557;48.466;7.950;2023-08-12T01:20:38;21.40;1.00
1137;DHT22;557;48.466;7.950;2023-08-12T01:23:26;21.40;1.00
1137;DHT22;557;48.466;7.950;2023-08-12T01:26:14;21.40;1.00
1137;DHT22;557;48.466;7.950;2023-08-12T01:29:01;21.30;1.00
1137;DHT22;557;48.466;7.950;2023-08-12T01:31:54;21.30;1.00
1137;DHT22;557;48.466;7.950;2023-08-12T01:34:46;21.30;1.00
1137;DHT22;557;48.466;7.950;2023-08-12T01:37:35;21.30;1.00
1137;DHT22;557;48.466;7.950;2023-08-12T01:40:26;21.40;1.00
1137;DHT22;557;48.466;7.950;2023-08-12T01:43:15;21.40;1.00
1137;DHT22;557;48.466;7.950;2023-08-12T01:46:02;21.40;1.00
1137;DHT22;557;48.466;7.950;2023-08-12T01:48:50;21.40;1.00
1137;DHT22;557;48.466;7.950;2023-08-12T01:51:37;21.30;1.00
1137;DHT22;557;48.466;7.950;2023-08-12T01:54:24;21.40;1.00
1137;DHT22;557;48.466;7.950;2023-08-12T01:57:13;21.50;1.00
1137;DHT22;557;48.466;7.950;2023-08-12T02:00:00;21.40;1.00
1137;DHT22;557;48.466;7.950;2023-08-12T02:02:48;21.30;1.00
1137;DHT22;557;48.466;7.950;2023-08-12T02:05:35;21.20;1.00
1137;DHT22;557;48.466;7.950;2023-08-12T02:08:23;21.10;1.00
1137;DHT22;557;48.466;7.950;2023-08-12T02:11:10;21.10;1.00
1137;DHT22;557;48.466;7.950;2023-08-12T02:13:58;21.00;1.00
1137;DHT22;557;48.466;7.950;2023-08-12T02:16:46;20.90;1.00
1137;DHT22;557;48.466;7.950;2023-08-12T02:19:33;20.90;1.00
1137;DHT22;557;48.466;7.950;2023-08-12T02:22:21;20.90;1.00
1137;DHT22;557;48.466;7.950;2023-08-12T02:25:08;20.80;1.00
1137;DHT22;557;48.466;7.950;2023-08-12T02:27:56;20.90;1.00
1137;DHT22;557;48.466;7.950;2023-08-12T02:30:44;21.00;1.00
1137;DHT22;557;48.466;7.950;2023-08-12T02:33:32;21.00;1.00
1137;DHT22;557;48.466;7.950;2023-08-12T02:36:19;20.90;25.70
1137;DHT22;557;48.466;7.950;2023-08-12T02:39:06;20.80;40.00
1137;DHT22;557;48.466;7.950;2023-08-12T02:41:53;20.80;23.20
1137;DHT22;557;48.466;7.950;2023-08-12T02:44:41;20.80;23.40
1137;DHT22;557;48.466;7.950;2023-08-12T02:47:29;20.70;30.10
1137;DHT22;557;48.466;7.950;2023-08-12T02:50:16;20.80;44.40
1137;DHT22;557;48.466;7.950;2023-08-12T02:53:05;20.80;46.90
1137;DHT22;557;48.466;7.950;2023-08-12T02:55:52;20.80;34.10
1137;DHT22;557;48.466;7.950;2023-08-12T02:58:40;20.80;30.10
1137;DHT22;557;48.466;7.950;2023-08-12T03:01:27;20.70;46.20
1137;DHT22;557;48.466;7.950;2023-08-12T03:04:16;20.60;62.30
1137;DHT22;557;48.466;7.950;2023-08-12T03:07:03;20.50;58.70
1137;DHT22;557;48.466;7.950;2023-08-12T03:09:51;20.50;66.80
1137;DHT22;557;48.466;7.950;2023-08-12T03:12:38;20.40;88.80
1137;DHT22;557;48.466;7.950;2023-08-12T03:15:25;20.40;90.20
1137;DHT22;557;48.466;7.950;2023-08-12T03:18:12;20.30;99.90
1137;DHT22;557;48.466;7.950;2023-08-12T03:21:05;20.20;99.90
1137;DHT22;557;48.466;7.950;2023-08-12T03:23:53;20.30;99.90
1137;DHT22;557;48.466;7.950;2023-08-12T03:26:40;20.20;99.90
1137;DHT22;557;48.466;7.950;2023-08-12T03:29:27;20.20;99.90
1137;DHT22;557;48.466;7.950;2023-08-12T03:32:15;20.10;99.90
1137;DHT22;557;48.466;7.950;2023-08-12T03:35:02;20.00;99.90
1137;DHT22;557;48.466;7.950;2023-08-12T03:37:51;20.00;99.90
1137;DHT22;557;48.466;7.950;2023-08-12T03:40:39;19.90;99.90
1137;DHT22;557;48.466;7.950;2023-08-12T03:43:26;19.90;99.90
1137;DHT22;557;48.466;7.950;2023-08-12T03:46:14;19.90;99.90
1137;DHT22;557;48.466;7.950;2023-08-12T03:49:01;19.90;99.90
1137;DHT22;557;48.466;7.950;2023-08-12T03:51:48;19.80;99.90
1137;DHT22;557;48.466;7.950;2023-08-12T03:54:37;19.80;99.90
1137;DHT22;557;48.466;7.950;2023-08-12T03:57:24;19.80;99.90
1137;DHT22;557;48.466;7.950;2023-08-12T04:00:12;19.70;99.90
1137;DHT22;557;48.466;7.950;2023-08-12T04:03:00;19.70;99.90
1137;DHT22;557;48.466;7.950;2023-08-12T04:05:48;19.70;99.90
1137;DHT22;557;48.466;7.950;2023-08-12T04:08:37;19.60;99.90
1137;DHT22;557;48.466;7.950;2023-08-12T04:11:26;19.70;99.90
1137;DHT22;557;48.466;7.950;2023-08-12T04:14:14;19.60;99.90
1137;DHT22;557;48.466;7.950;2023-08-12T04:17:01;19.70;99.90
1137;DHT22;557;48.466;7.950;2023-08-12T04:19:48;19.80;99.90
1137;DHT22;557;48.466;7.950;2023-08-12T04:22:35;19.80;99.90
1137;DHT22;557;48.466;7.950;2023-08-12T04:25:23;19.90;99.90
1137;DHT22;557;48.466;7.950;2023-08-12T04:28:12;19.90;99.90
1137;DHT22;557;48.466;7.950;2023-08-12T04:30:59;20.00;99.90
1137;DHT22;557;48.466;7.950;2023-08-12T04:33:46;20.00;99.90
1137;DHT22;557;48.466;7.950;2023-08-12T04:36:35;20.00;99.90
1137;DHT22;557;48.466;7.950;2023-08-12T04:39:22;20.00;99.90
1137;DHT22;557;48.466;7.950;2023-08-12T04:42:09;20.10;98.80
1137;DHT22;557;48.466;7.950;2023-08-12T04:44:58;20.10;99.90
1137;DHT22;557;48.466;7.950;2023-08-12T04:47:45;20.10;99.90
1137;DHT22;557;48.466;7.950;2023-08-12T04:50:32;20.10;99.90
1137;DHT22;557;48.466;7.950;2023-08-12T04:53:20;20.10;99.90
1137;DHT22;557;48.466;7.950;2023-08-12T04:56:08;20.00;99.90
1137;DHT22;557;48.466;7.950;2023-08-12T04:58:55;20.10;99.90
1137;DHT22;557;48.466;7.950;2023-08-12T05:01:43;20.10;99.90
1137;DHT22;557;48.466;7.950;2023-08-12T05:04:31;20.10;99.90
1137;DHT22;557;48.466;7.950;2023-08-12T05:07:18;20.20;99.90
1137;DHT22;557;48.466;7.950;2023-08-12T05:10:06;20.20;99.90
1137;DHT22;557;48.466;7.950;2023-08-12T05:12:54;20.10;99.90
1137;DHT22;557;48.466;7.950;2023-08-12T05:15:45;20.00;99.90
1137;DHT22;557;48.466;7.950;2023-08-12T05:18:34;20.00;99.90
1137;DHT22;557;48.466;7.950;2023-08-12T05:21:21;20.00;99.90
1137;DHT22;557;48.466;7.950;2023-08-12T05:24:09;20.10;99.90
1137;DHT22;557;48.466;7.950;2023-08-12T05:26:57;20.20;99.90
1137;DHT22;557;48.466;7.950;2023-08-12T05:29:44;20.30;99.90
1137;DHT22;557;48.466;7.950;2023-08-12T05:32:32;20.40;99.90
1137;DHT22;557;48.466;7.950;2023-08-12T05:35:20;20.50;58.60
1137;DHT22;557;48.466;7.950;2023-08-12T05:38:07;20.60;52.10
1137;DHT22;557;48.466;7.950;2023-08-12T05:40:55;20.80;43.80
1137;DHT22;557;48.466;7.950;2023-08-12T05:43:42;21.00;13.60
1137;DHT22;557;48.466;7.950;2023-08-12T05:46:29;21.10;13.20
1137;DHT22;557;48.466;7.950;2023-08-12T05:49:16;21.30;1.00
1137;DHT22;557;48.466;7.950;2023-08-12T05:52:05;21.40;1.00
1137;DHT22;557;48.466;7.950;2023-08-12T05:54:53;21.50;1.00
1137;DHT22;557;48.466;7.950;2023-08-12T05:57:40;21.40;1.00
1137;DHT22;557;48.466;7.950;2023-08-12T06:00:27;21.40;1.00
1137;DHT22;557;48.466;7.950;2023-08-12T06:03:14;21.40;1.00
1137;DHT22;557;48.466;7.950;2023-08-12T06:06:03;21.40;1.00
1137;DHT22;557;48.466;7.950;2023-08-12T06:08:51;21.40;1.00
1137;DHT22;557;48.466;7.950;2023-08-12T06:11:38;21.50;1.00
1137;DHT22;557;48.466;7.950;2023-08-12T06:14:26;21.70;1.00
1137;DHT22;557;48.466;7.950;2023-08-12T06:17:13;21.80;1.00
1137;DHT22;557;48.466;7.950;2023-08-12T06:20:00;21.90;1.00
1137;DHT22;557;48.466;7.950;2023-08-12T06:22:49;21.90;1.00
1137;DHT22;557;48.466;7.950;2023-08-12T06:25:37;21.90;1.00
1137;DHT22;557;48.466;7.950;2023-08-12T06:28:25;22.00;1.00
1137;DHT22;557;48.466;7.950;2023-08-12T06:31:12;22.00;1.00
1137;DHT22;557;48.466;7.950;2023-08-12T06:33:59;22.00;1.00
1137;DHT22;557;48.466;7.950;2023-08-12T06:36:46;22.10;1.00
1137;DHT22;557;48.466;7.950;2023-08-12T06:39:34;22.20;1.00
1137;DHT22;557;48.466;7.950;2023-08-12T06:42:22;22.30;1.00
1137;DHT22;557;48.466;7.950;2023-08-12T06:45:10;22.30;1.00
1137;DHT22;557;48.466;7.950;2023-08-12T06:47:58;22.30;1.00
1137;DHT22;557;48.466;7.950;2023-08-12T06:50:45;22.30;1.00
1137;DHT22;557;48.466;7.950;2023-08-12T06:53:32;22.40;1.00
1137;DHT22;557;48.466;7.950;2023-08-12T06:56:20;22.50;1.00
1137;DHT22;557;48.466;7.950;2023-08-12T06:59:08;22.60;1.00
1137;DHT22;557;48.466;7.950;2023-08-12T07:01:56;22.80;1.00
1137;DHT22;557;48.466;7.950;2023-08-12T07:04:44;23.00;1.00
1137;DHT22;557;48.466;7.950;2023-08-12T07:07:31;22.90;1.00
1137;DHT22;557;48.466;7.950;2023-08-12T07:10:18;23.00;1.00
1137;DHT22;557;48.466;7.950;2023-08-12T07:13:06;23.20;1.00
1137;DHT22;557;48.466;7.950;2023-08-12T07:15:54;23.40;99.90
1137;DHT22;557;48.466;7.950;2023-08-12T07:18:41;23.50;99.90
1137;DHT22;557;48.466;7.950;2023-08-12T07:21:29;23.90;34.20
1137;DHT22;557;48.466;7.950;2023-08-12T07:24:31;24.30;1.00
1137;DHT22;557;48.466;7.950;2023-08-12T07:27:19;24.40;92.10
1137;DHT22;557;48.466;7.950;2023-08-12T07:30:07;24.40;99.90
1137;DHT22;557;48.466;7.950;2023-08-12T07:32:56;24.20;1.00
1137;DHT22;557;48.466;7.950;2023-08-12T07:35:44;24.20;1.00
1137;DHT22;557;48.466;7.950;2023-08-12T07:38:31;24.30;92.70
1137;DHT22;557;48.466;7.950;2023-08-12T07:41:18;24.60;1.00
1137;DHT22;557;48.466;7.950;2023-08-12T07:44:05;25.00;99.90
1137;DHT22;557;48.466;7.950;2023-08-12T07:46:53;25.10;99.90
1137;DHT22;557;48.466;7.950;2023-08-12T07:49:42;25.10;1.00
1137;DHT22;557;48.466;7.950;2023-08-12T07:52:29;25.10;56.40
1137;DHT22;557;48.466;7.950;2023-08-12T07:55:16;25.10;99.90
1137;DHT22;557;48.466;7.950;2023-08-12T07:58:03;25.30;1.00
1137;DHT22;557;48.466;7.950;2023-08-12T08:00:52;25.60;1.00
1137;DHT22;557;48.466;7.950;2023-08-12T08:03:40;26.00;1.00
1137;DHT22;557;48.466;7.950;2023-08-12T08:06:29;26.40;1.00
1137;DHT22;557;48.466;7.950;2023-08-12T08:09:16;26.70;82.10
1137;DHT22;557;48.466;7.950;2023-08-12T08:12:04;26.80;99.90
1137;DHT22;557;48.466;7.950;2023-08-12T08:14:53;27.00;99.90
1137;DHT22;557;48.466;7.950;2023-08-12T08:17:40;27.00;99.90
1137;DHT22;557;48.466;7.950;2023-08-12T08:20:27;26.70;99.90
1137;DHT22;557;48.466;7.950;2023-08-12T08:23:16;26.60;1.00
1137;DHT22;557;48.466;7.950;2023-08-12T08:26:03;26.40;1.00
1137;DHT22;557;48.466;7.950;2023-08-12T08:28:50;26.10;66.00
1137;DHT22;557;48.466;7.950;2023-08-12T08:31:37;25.70;99.90
1137;DHT22;557;48.466;7.950;2023-08-12T08:34:25;25.40;1.00
1137;DHT22;557;48.466;7.950;2023-08-12T08:37:12;25.10;99.90
1137;DHT22;557;48.466;7.950;2023-08-12T08:40:00;24.90;99.90
1137;DHT22;557;48.466;7.950;2023-08-12T08:42:52;24.90;1.00
1137;DHT22;557;48.466;7.950;2023-08-12T08:45:40;24.90;99.90
1137;DHT22;557;48.466;7.950;2023-08-12T08:48:28;25.10;99.90
1137;DHT22;557;48.466;7.950;2023-08-12T08:51:18;25.40;13.10
1137;DHT22;557;48.466;7.950;2023-08-12T08:54:06;25.70;99.90
1137;DHT22;557;48.466;7.950;2023-08-12T08:56:54;26.40;88.10
1137;DHT22;557;48.466;7.950;2023-08-12T08:59:42;27.10;99.90
1137;DHT22;557;48.466;7.950;2023-08-12T09:02:30;27.40;1.00
1137;DHT22;557;48.466;7.950;2023-08-12T09:05:17;27.50;53.50
1137;DHT22;557;48.466;7.950;2023-08-12T09:08:07;27.60;3.60
1137;DHT22;557;48.466;7.950;2023-08-12T09:10:57;27.60;1.00
1137;DHT22;557;48.466;7.950;2023-08-12T09:13:57;27.80;1.00
1137;DHT22;557;48.466;7.950;2023-08-12T09:16:44;28.10;1.00
1137;DHT22;557;48.466;7.950;2023-08-12T09:19:31;28.20;1.00
1137;DHT22;557;48.466;7.950;2023-08-12T09:22:19;28.30;1.00
1137;DHT22;557;48.466;7.950;2023-08-12T09:25:07;28.50;1.00
1137;DHT22;557;48.466;7.950;2023-08-12T09:27:55;28.50;99.90
1137;DHT22;557;48.466;7.950;2023-08-12T09:30:50;27.90;1.00
1137;DHT22;557;48.466;7.950;2023-08-12T09:33:39;28.10;1.00
1137;DHT22;557;48.466;7.950;2023-08-12T09:36:29;28.80;1.00
1137;DHT22;557;48.466;7.950;2023-08-12T09:39:20;28.60;99.90
1137;DHT22;557;48.466;7.950;2023-08-12T09:42:10;28.30;1.00
1137;DHT22;557;48.466;7.950;2023-08-12T09:44:57;28.20;1.00
1137;DHT22;557;48.466;7.950;2023-08-12T09:47:46;27.90;1.00
1137;DHT22;557;48.466;7.950;2023-08-12T09:50:34;28.10;1.00
1137;DHT22;557;48.466;7.950;2023-08-12T09:53:23;28.30;1.00
1137;DHT22;557;48.466;7.950;2023-08-12T09:56:12;28.90;1.00
1137;DHT22;557;48.466;7.950;2023-08-12T09:59:05;29.50;99.90
1137;DHT22;557;48.466;7.950;2023-08-12T10:01:53;29.10;99.90
1137;DHT22;557;48.466;7.950;2023-08-12T10:04:46;28.70;99.90
1137;DHT22;557;48.466;7.950;2023-08-12T10:07:36;28.80;99.90
1137;DHT22;557;48.466;7.950;2023-08-12T10:10:26;28.80;99.90
1137;DHT22;557;48.466;7.950;2023-08-12T10:13:21;29.10;99.90
1137;DHT22;557;48.466;7.950;2023-08-12T10:20:01;28.30;99.90
1137;DHT22;557;48.466;7.950;2023-08-12T10:22:52;28.50;99.90
1137;DHT22;557;48.466;7.950;2023-08-12T10:26:06;28.40;99.90
1137;DHT22;557;48.466;7.950;2023-08-12T10:28:54;28.30;99.90
1137;DHT22;557;48.466;7.950;2023-08-12T10:31:42;28.30;99.90
1137;DHT22;557;48.466;7.950;2023-08-12T10:34:30;28.10;99.90
1137;DHT22;557;48.466;7.950;2023-08-12T10:37:19;28.00;99.90
1137;DHT22;557;48.466;7.950;2023-08-12T10:40:20;27.80;99.90
1137;DHT22;557;48.466;7.950;2023-08-12T10:43:08;27.50;99.90
1137;DHT22;557;48.466;7.950;2023-08-12T10:45:55;27.30;99.90
1137;DHT22;557;48.466;7.950;2023-08-12T10:48:56;27.10;99.90
1137;DHT22;557;48.466;7.950;2023-08-12T10:51:45;27.10;1.00
1137;DHT22;557;48.466;7.950;2023-08-12T10:54:35;27.00;1.00
1137;DHT22;557;48.466;7.950;2023-08-12T10:57:42;26.90;1.00
1137;DHT22;557;48.466;7.950;2023-08-12T11:00:30;26.90;1.00
1137;DHT22;557;48.466;7.950;2023-08-12T11:03:20;26.80;1.00
1137;DHT22;557;48.466;7.950;2023-08-12T11:06:10;26.70;1.00
1137;DHT22;557;48.466;7.950;2023-08-12T11:08:57;26.40;99.90
1137;DHT22;557;48.466;7.950;2023-08-12T11:11:56;26.10;8.00
1137;DHT22;557;48.466;7.950;2023-08-12T11:14:53;25.70;1.00
1137;DHT22;557;48.466;7.950;2023-08-12T11:17:46;24.90;1.00
1137;DHT22;557;48.466;7.950;2023-08-12T11:20:42;24.30;45.00
1137;DHT22;557;48.466;7.950;2023-08-12T11:32:30;24.60;99.90
1137;DHT22;557;48.466;7.950;2023-08-12T11:35:19;25.70;99.90
1137;DHT22;557;48.466;7.950;2023-08-12T11:38:19;26.20;1.00
1137;DHT22;557;48.466;7.950;2023-08-12T11:41:11;26.10;1.00
1137;DHT22;557;48.466;7.950;2023-08-12T11:43:58;25.80;54.80
1137;DHT22;557;48.466;7.950;2023-08-12T11:46:46;25.40;22.20
1137;DHT22;557;48.466;7.950;2023-08-12T11:49:38;25.10;99.90
1137;DHT22;557;48.466;7.950;2023-08-12T11:52:29;25.10;99.90
1137;DHT22;557;48.466;7.950;2023-08-12T11:55:20;25.10;99.90
1137;DHT22;557;48.466;7.950;2023-08-12T11:58:13;25.20;75.30
1137;DHT22;557;48.466;7.950;2023-08-12T12:01:08;25.40;27.90
1137;DHT22;557;48.466;7.950;2023-08-12T12:03:56;25.60;23.60
1137;DHT22;557;48.466;7.950;2023-08-12T12:06:47;25.90;1.00
1137;DHT22;557;48.466;7.950;2023-08-12T12:09:35;26.40;1.00
1137;DHT22;557;48.466;7.950;2023-08-12T12:12:29;27.00;1.00
1137;DHT22;557;48.466;7.950;2023-08-12T12:15:18;27.40;1.00
1137;DHT22;557;48.466;7.950;2023-08-12T12:18:10;28.10;1.00
1137;DHT22;557;48.466;7.950;2023-08-12T12:20:58;28.90;99.90
1137;DHT22;557;48.466;7.950;2023-08-12T12:23:52;29.40;99.90
1137;DHT22;557;48.466;7.950;2023-08-12T12:26:42;29.50;24.00
1137;DHT22;557;48.466;7.950;2023-08-12T12:29:29;29.50;1.00
1137;DHT22;557;48.466;7.950;2023-08-12T12:32:18;29.20;1.00
1137;DHT22;557;48.466;7.950;2023-08-12T12:35:06;29.00;15.70
1137;DHT22;557;48.466;7.950;2023-08-12T12:37:58;29.00;99.90
1137;DHT22;557;48.466;7.950;2023-08-12T12:40:52;29.10;99.90
1137;DHT22;557;48.466;7.950;2023-08-12T12:43:39;29.00;99.90
1137;DHT22;557;48.466;7.950;2023-08-12T12:46:27;28.70;99.90
1137;DHT22;557;48.466;7.950;2023-08-12T12:49:14;28.40;99.90
1137;DHT22;557;48.466;7.950;2023-08-12T12:52:02;28.90;99.90
1137;DHT22;557;48.466;7.950;2023-08-12T12:54:52;29.50;1.00
1137;DHT22;557;48.466;7.950;2023-08-12T12:57:40;29.90;99.90
1137;DHT22;557;48.466;7.950;2023-08-12T13:00:28;30.10;1.00
1137;DHT22;557;48.466;7.950;2023-08-12T13:03:16;30.50;1.00
1137;DHT22;557;48.466;7.950;2023-08-12T13:06:03;30.60;1.00
1137;DHT22;557;48.466;7.950;2023-08-12T13:08:53;30.30;99.90
1137;DHT22;557;48.466;7.950;2023-08-12T13:11:45;29.80;99.90
1137;DHT22;557;48.466;7.950;2023-08-12T13:14:33;29.50;99.90
1137;DHT22;557;48.466;7.950;2023-08-12T13:17:21;29.80;99.90
1137;DHT22;557;48.466;7.950;2023-08-12T13:20:09;30.10;1.00
1137;DHT22;557;48.466;7.950;2023-08-12T13:22:56;30.00;99.90
1137;DHT22;557;48.466;7.950;2023-08-12T13:25:43;29.40;99.90
1137;DHT22;557;48.466;7.950;2023-08-12T13:28:31;29.30;99.90
1137;DHT22;557;48.466;7.950;2023-08-12T13:31:19;29.90;99.90
1137;DHT22;557;48.466;7.950;2023-08-12T13:34:07;30.20;99.90
1137;DHT22;557;48.466;7.950;2023-08-12T13:36:54;30.40;99.90
1137;DHT22;557;48.466;7.950;2023-08-12T13:39:41;30.60;99.90
1137;DHT22;557;48.466;7.950;2023-08-12T13:42:29;30.80;99.90
1137;DHT22;557;48.466;7.950;2023-08-12T13:45:16;30.60;99.90
1137;DHT22;557;48.466;7.950;2023-08-12T13:48:05;30.90;99.90
1137;DHT22;557;48.466;7.950;2023-08-12T13:50:53;31.00;99.90
1137;DHT22;557;48.466;7.950;2023-08-12T13:53:40;30.90;99.90
1137;DHT22;557;48.466;7.950;2023-08-12T13:56:28;30.80;99.90
1137;DHT22;557;48.466;7.950;2023-08-12T13:59:15;31.00;99.90
1137;DHT22;557;48.466;7.950;2023-08-12T14:02:02;31.20;99.90
1137;DHT22;557;48.466;7.950;2023-08-12T14:04:51;30.90;99.90
1137;DHT22;557;48.466;7.950;2023-08-12T14:07:38;30.80;99.90
1137;DHT22;557;48.466;7.950;2023-08-12T14:10:26;30.70;99.90
1137;DHT22;557;48.466;7.950;2023-08-12T14:13:13;30.60;99.90
1137;DHT22;557;48.466;7.950;2023-08-12T14:16:00;30.90;99.90
1137;DHT22;557;48.466;7.950;2023-08-12T14:18:47;30.70;99.90
1137;DHT22;557;48.466;7.950;2023-08-12T14:21:36;30.50;99.90
1137;DHT22;557;48.466;7.950;2023-08-12T14:24:23;30.80;99.90
1137;DHT22;557;48.466;7.950;2023-08-12T14:27:11;30.90;99.90
1137;DHT22;557;48.466;7.950;2023-08-12T14:29:58;31.10;99.90
1137;DHT22;557;48.466;7.950;2023-08-12T14:32:45;31.00;99.90
1137;DHT22;557;48.466;7.950;2023-08-12T14:35:34;30.70;99.90
1137;DHT22;557;48.466;7.950;2023-08-12T14:38:23;30.50;99.90
1137;DHT22;557;48.466;7.950;2023-08-12T14:41:10;30.20;99.90
1137;DHT22;557;48.466;7.950;2023-08-12T14:43:57;29.90;99.90
1137;DHT22;557;48.466;7.950;2023-08-12T14:46:44;29.50;99.90
1137;DHT22;557;48.466;7.950;2023-08-12T14:49:32;29.20;99.90
1137;DHT22;557;48.466;7.950;2023-08-12T14:52:20;29.00;99.90
1137;DHT22;557;48.466;7.950;2023-08-12T14:55:09;28.90;1.00
1137;DHT22;557;48.466;7.950;2023-08-12T14:57:57;28.80;1.00
1137;DHT22;557;48.466;7.950;2023-08-12T15:00:44;28.70;1.00
1137;DHT22;557;48.466;7.950;2023-08-12T15:03:33;28.30;1.00
1137;DHT22;557;48.466;7.950;2023-08-12T15:06:21;27.80;99.90
1137;DHT22;557;48.466;7.950;2023-08-12T15:09:09;27.20;1.00
1137;DHT22;557;48.466;7.950;2023-08-12T15:11:57;26.60;99.90
1137;DHT22;557;48.466;7.950;2023-08-12T15:14:45;25.30;43.10
1137;DHT22;557;48.466;7.950;2023-08-12T15:17:32;24.40;99.90
1137;DHT22;557;48.466;7.950;2023-08-12T15:20:19;23.80;99.90
1137;DHT22;557;48.466;7.950;2023-08-12T15:23:07;23.40;99.90
1137;DHT22;557;48.466;7.950;2023-08-12T15:25:54;23.20;99.90
1137;DHT22;557;48.466;7.950;2023-08-12T15:28:42;23.20;99.90
1137;DHT22;557;48.466;7.950;2023-08-12T15:31:30;23.30;99.90
1137;DHT22;557;48.466;7.950;2023-08-12T15:34:17;23.30;99.90
1137;DHT22;557;48.466;7.950;2023-08-12T15:37:04;23.40;99.90
1137;DHT22;557;48.466;7.950;2023-08-12T15:39:51;23.50;99.90
1137;DHT22;557;48.466;7.950;2023-08-12T15:42:39;23.80;99.90
1137;DHT22;557;48.466;7.950;2023-08-12T15:45:28;23.90;99.90
1137;DHT22;557;48.466;7.950;2023-08-12T15:48:15;23.90;99.90
1137;DHT22;557;48.466;7.950;2023-08-12T15:51:02;23.90;99.90
1137;DHT22;557;48.466;7.950;2023-08-12T15:53:50;23.90;99.90
1137;DHT22;557;48.466;7.950;2023-08-12T15:56:37;23.80;99.90
1137;DHT22;557;48.466;7.950;2023-08-12T15:59:24;23.80;99.90
1137;DHT22;557;48.466;7.950;2023-08-12T16:02:13;23.70;99.90
1137;DHT22;557;48.466;7.950;2023-08-12T16:05:00;23.70;99.90
1137;DHT22;557;48.466;7.950;2023-08-12T16:07:47;23.70;99.90
1137;DHT22;557;48.466;7.950;2023-08-12T16:10:37;23.70;99.90
1137;DHT22;557;48.466;7.950;2023-08-12T16:13:24;23.50;99.90
1137;DHT22;557;48.466;7.950;2023-08-12T16:16:13;23.40;99.90
1137;DHT22;557;48.466;7.950;2023-08-12T16:19:01;23.30;99.90
1137;DHT22;557;48.466;7.950;2023-08-12T16:21:49;23.30;99.90
1137;DHT22;557;48.466;7.950;2023-08-12T16:24:36;23.30;99.90
1137;DHT22;557;48.466;7.950;2023-08-12T16:27:23;23.20;99.90
1137;DHT22;557;48.466;7.950;2023-08-12T16:30:11;23.20;99.90
1137;DHT22;557;48.466;7.950;2023-08-12T16:32:59;23.10;99.90
1137;DHT22;557;48.466;7.950;2023-08-12T16:35:47;23.10;99.90
1137;DHT22;557;48.466;7.950;2023-08-12T16:38:35;23.10;99.90
1137;DHT22;557;48.466;7.950;2023-08-12T16:41:23;23.20;99.90
1137;DHT22;557;48.466;7.950;2023-08-12T16:44:10;23.30;99.90
1137;DHT22;557;48.466;7.950;2023-08-12T16:46:58;23.70;99.90
1137;DHT22;557;48.466;7.950;2023-08-12T16:49:45;24.70;99.90
1137;DHT22;557;48.466;7.950;2023-08-12T16:52:34;25.70;99.90
1137;DHT22;557;48.466;7.950;2023-08-12T16:55:21;26.70;99.90
1137;DHT22;557;48.466;7.950;2023-08-12T16:58:08;26.90;99.90
1137;DHT22;557;48.466;7.950;2023-08-12T17:00:55;26.20;86.40
1137;DHT22;557;48.466;7.950;2023-08-12T17:03:43;25.50;99.90
1137;DHT22;557;48.466;7.950;2023-08-12T17:06:30;24.90;99.90
1137;DHT22;557;48.466;7.950;2023-08-12T17:09:19;24.40;99.90
1137;DHT22;557;48.466;7.950;2023-08-12T17:12:07;24.10;99.90
1137;DHT22;557;48.466;7.950;2023-08-12T17:14:54;23.90;99.90
1137;DHT22;557;48.466;7.950;2023-08-12T17:17:41;23.80;99.90
1137;DHT22;557;48.466;7.950;2023-08-12T17:20:29;23.60;99.90
1137;DHT22;557;48.466;7.950;2023-08-12T17:23:16;23.60;99.90
1137;DHT22;557;48.466;7.950;2023-08-12T17:26:05;23.50;99.90
1137;DHT22;557;48.466;7.950;2023-08-12T17:28:52;23.50;99.90
1137;DHT22;557;48.466;7.950;2023-08-12T17:31:39;23.50;99.90
1137;DHT22;557;48.466;7.950;2023-08-12T17:34:27;23.50;99.90
1137;DHT22;557;48.466;7.950;2023-08-12T17:37:14;23.50;99.90
1137;DHT22;557;48.466;7.950;2023-08-12T17:40:01;23.50;99.90
1137;DHT22;557;48.466;7.950;2023-08-12T17:42:50;23.50;99.90
1137;DHT22;557;48.466;7.950;2023-08-12T17:45:37;23.40;99.90
1137;DHT22;557;48.466;7.950;2023-08-12T17:48:24;23.40;99.90
1137;DHT22;557;48.466;7.950;2023-08-12T17:51:12;23.40;99.90
1137;DHT22;557;48.466;7.950;2023-08-12T17:54:00;23.40;99.90
1137;DHT22;557;48.466;7.950;2023-08-12T17:56:48;23.40;99.90
1137;DHT22;557;48.466;7.950;2023-08-12T17:59:36;23.50;99.90
1137;DHT22;557;48.466;7.950;2023-08-12T18:02:23;23.30;99.90
1137;DHT22;557;48.466;7.950;2023-08-12T18:05:11;23.20;99.90
1137;DHT22;557;48.466;7.950;2023-08-12T18:07:58;23.20;99.90
1137;DHT22;557;48.466;7.950;2023-08-12T18:10:45;23.20;99.90
1137;DHT22;557;48.466;7.950;2023-08-12T18:13:32;23.10;99.90
1137;DHT22;557;48.466;7.950;2023-08-12T18:16:21;23.00;99.90
1137;DHT22;557;48.466;7.950;2023-08-12T18:19:08;23.00;99.90
1137;DHT22;557;48.466;7.950;2023-08-12T18:21:55;22.80;99.90
1137;DHT22;557;48.466;7.950;2023-08-12T18:24:44;22.70;99.90
1137;DHT22;557;48.466;7.950;2023-08-12T18:27:32;22.60;99.90
1137;DHT22;557;48.466;7.950;2023-08-12T18:30:19;22.60;99.90
1137;DHT22;557;48.466;7.950;2023-08-12T18:33:08;22.50;99.90
1137;DHT22;557;48.466;7.950;2023-08-12T18:35:55;22.40;99.90
1137;DHT22;557;48.466;7.950;2023-08-12T18:38:42;22.40;99.90
1137;DHT22;557;48.466;7.950;2023-08-12T18:41:31;22.50;99.90
1137;DHT22;557;48.466;7.950;2023-08-12T18:44:18;22.50;99.90
1137;DHT22;557;48.466;7.950;2023-08-12T18:47:05;22.30;99.90
1137;DHT22;557;48.466;7.950;2023-08-12T18:49:54;22.30;99.90
1137;DHT22;557;48.466;7.950;2023-08-12T18:52:41;22.20;99.90
1137;DHT22;557;48.466;7.950;2023-08-12T18:55:29;22.20;99.90
1137;DHT22;557;48.466;7.950;2023-08-12T18:58:16;22.10;99.90